Terminal Aerodrome Forecast
Issued by NWS Denver/Boulder, CO

Home | Current Version | Previous Version | Text Only | Print | Product List | Glossary On
Versions: 1 2 3 4 5 6 7 8 9 10 11 12 13 14 15 16 17 18 19 20 21 22 23 24 25 26 27 28 29 30 31 32 33 34 35 36 37 38 39
000
FTUS45 KBOU 291849 AAA
TAFDEN
TAF AMD
KDEN 291849Z 2919/3024 09008KT P6SM SCT080 SCT150
     FM292000 10011KT P6SM VCTS SCT070CB BKN110
      TEMPO 2920/2924 VRB18G30KT
     FM300100 23011KT P6SM FEW070 SCT140 BKN220
     FM300600 21008KT P6SM FEW140 SCT220
     FM301600 VRB05KT P6SM FEW070 SCT140 BKN220
     FM302000 05006KT P6SM SCT070 BKN110 PROB30 3020/3024 VRB20G35KT
      -TSRA BKN060CB=

USA.gov is the U.S. government's official web portal to all federal, state and local government web resources and services.